sensor_id;sensor_type;location;lat;lon;timestamp;P1;durP1;ratioP1;P2;durP2;ratioP2
23155;SDS011;11746;50.876;4.246;2023-03-14T00:02:10;8.40;;;1.20;;
23155;SDS011;11746;50.876;4.246;2023-03-14T00:04:40;8.93;;;1.70;;
23155;SDS011;11746;50.876;4.246;2023-03-14T00:07:09;8.40;;;1.00;;
23155;SDS011;11746;50.876;4.246;2023-03-14T00:09:36;8.27;;;1.42;;
23155;SDS011;11746;50.876;4.246;2023-03-14T00:12:04;7.07;;;1.35;;
23155;SDS011;11746;50.876;4.246;2023-03-14T00:14:31;7.20;;;1.05;;
23155;SDS011;11746;50.876;4.246;2023-03-14T00:16:57;5.88;;;1.10;;
23155;SDS011;11746;50.876;4.246;2023-03-14T00:19:23;5.88;;;1.15;;
23155;SDS011;11746;50.876;4.246;2023-03-14T00:21:49;8.75;;;1.40;;
23155;SDS011;11746;50.876;4.246;2023-03-14T00:24:14;7.25;;;1.15;;
23155;SDS011;11746;50.876;4.246;2023-03-14T00:26:43;8.95;;;1.35;;
23155;SDS011;11746;50.876;4.246;2023-03-14T00:29:08;8.15;;;1.17;;
23155;SDS011;11746;50.876;4.246;2023-03-14T00:31:36;9.50;;;1.50;;
23155;SDS011;11746;50.876;4.246;2023-03-14T00:34:02;6.93;;;1.10;;
23155;SDS011;11746;50.876;4.246;2023-03-14T00:36:27;9.30;;;1.35;;
23155;SDS011;11746;50.876;4.246;2023-03-14T00:38:53;8.07;;;1.25;;
23155;SDS011;11746;50.876;4.246;2023-03-14T00:41:21;7.22;;;1.65;;
23155;SDS011;11746;50.876;4.246;2023-03-14T00:43:48;9.45;;;1.45;;
23155;SDS011;11746;50.876;4.246;2023-03-14T00:46:14;5.70;;;1.50;;
23155;SDS011;11746;50.876;4.246;2023-03-14T00:48:40;7.30;;;1.27;;
23155;SDS011;11746;50.876;4.246;2023-03-14T00:51:08;8.48;;;1.65;;
23155;SDS011;11746;50.876;4.246;2023-03-14T00:53:38;9.80;;;1.90;;
23155;SDS011;11746;50.876;4.246;2023-03-14T00:56:08;5.03;;;1.13;;
23155;SDS011;11746;50.876;4.246;2023-03-14T00:58:35;9.90;;;1.80;;
23155;SDS011;11746;50.876;4.246;2023-03-14T01:01:07;7.57;;;1.45;;
23155;SDS011;11746;50.876;4.246;2023-03-14T01:03:34;7.88;;;1.65;;
23155;SDS011;11746;50.876;4.246;2023-03-14T01:08:42;10.15;;;1.55;;
23155;SDS011;11746;50.876;4.246;2023-03-14T01:11:13;7.63;;;1.25;;
23155;SDS011;11746;50.876;4.246;2023-03-14T01:13:41;10.20;;;1.45;;
23155;SDS011;11746;50.876;4.246;2023-03-14T01:16:10;7.43;;;1.08;;
23155;SDS011;11746;50.876;4.246;2023-03-14T01:18:39;7.68;;;1.58;;
23155;SDS011;11746;50.876;4.246;2023-03-14T01:21:20;7.10;;;1.45;;
23155;SDS011;11746;50.876;4.246;2023-03-14T01:23:52;8.73;;;1.60;;
23155;SDS011;11746;50.876;4.246;2023-03-14T01:26:23;9.02;;;1.65;;
23155;SDS011;11746;50.876;4.246;2023-03-14T01:28:51;7.70;;;1.33;;
23155;SDS011;11746;50.876;4.246;2023-03-14T01:31:18;7.28;;;1.63;;
23155;SDS011;11746;50.876;4.246;2023-03-14T01:33:45;10.27;;;1.50;;
23155;SDS011;11746;50.876;4.246;2023-03-14T01:36:12;10.02;;;1.50;;
23155;SDS011;11746;50.876;4.246;2023-03-14T01:38:42;9.63;;;1.27;;
23155;SDS011;11746;50.876;4.246;2023-03-14T01:41:20;6.90;;;1.35;;
23155;SDS011;11746;50.876;4.246;2023-03-14T01:43:47;8.80;;;1.42;;
23155;SDS011;11746;50.876;4.246;2023-03-14T01:48:48;9.35;;;1.42;;
23155;SDS011;11746;50.876;4.246;2023-03-14T01:51:57;6.50;;;1.40;;
23155;SDS011;11746;50.876;4.246;2023-03-14T01:54:37;11.50;;;1.35;;
23155;SDS011;11746;50.876;4.246;2023-03-14T01:59:46;7.70;;;0.95;;
23155;SDS011;11746;50.876;4.246;2023-03-14T02:02:17;6.83;;;1.40;;
23155;SDS011;11746;50.876;4.246;2023-03-14T02:04:43;6.75;;;1.08;;
23155;SDS011;11746;50.876;4.246;2023-03-14T02:07:15;5.90;;;1.50;;
23155;SDS011;11746;50.876;4.246;2023-03-14T02:09:41;5.00;;;1.23;;
23155;SDS011;11746;50.876;4.246;2023-03-14T02:12:10;6.82;;;0.90;;
23155;SDS011;11746;50.876;4.246;2023-03-14T02:14:38;3.58;;;0.93;;
23155;SDS011;11746;50.876;4.246;2023-03-14T02:17:06;4.50;;;1.05;;
23155;SDS011;11746;50.876;4.246;2023-03-14T02:22:09;4.57;;;0.82;;
23155;SDS011;11746;50.876;4.246;2023-03-14T02:24:48;5.78;;;1.17;;
23155;SDS011;11746;50.876;4.246;2023-03-14T02:27:23;6.93;;;0.95;;
23155;SDS011;11746;50.876;4.246;2023-03-14T02:32:26;4.18;;;0.63;;
23155;SDS011;11746;50.876;4.246;2023-03-14T02:34:55;3.17;;;0.95;;
23155;SDS011;11746;50.876;4.246;2023-03-14T02:37:23;4.00;;;0.75;;
23155;SDS011;11746;50.876;4.246;2023-03-14T02:39:55;3.45;;;0.90;;
23155;SDS011;11746;50.876;4.246;2023-03-14T02:42:21;6.30;;;1.10;;
23155;SDS011;11746;50.876;4.246;2023-03-14T02:47:37;7.82;;;1.05;;
23155;SDS011;11746;50.876;4.246;2023-03-14T02:50:09;4.72;;;1.15;;
23155;SDS011;11746;50.876;4.246;2023-03-14T02:52:37;6.90;;;1.20;;
23155;SDS011;11746;50.876;4.246;2023-03-14T02:55:03;5.20;;;0.98;;
23155;SDS011;11746;50.876;4.246;2023-03-14T02:57:32;6.45;;;1.00;;
23155;SDS011;11746;50.876;4.246;2023-03-14T02:59:58;6.32;;;1.38;;
23155;SDS011;11746;50.876;4.246;2023-03-14T03:02:29;7.13;;;1.40;;
23155;SDS011;11746;50.876;4.246;2023-03-14T03:04:57;6.78;;;1.50;;
23155;SDS011;11746;50.876;4.246;2023-03-14T03:07:23;7.50;;;1.70;;
23155;SDS011;11746;50.876;4.246;2023-03-14T03:09:49;8.95;;;1.70;;
23155;SDS011;11746;50.876;4.246;2023-03-14T03:12:15;8.02;;;2.20;;
23155;SDS011;11746;50.876;4.246;2023-03-14T03:14:43;9.98;;;2.05;;
23155;SDS011;11746;50.876;4.246;2023-03-14T03:17:09;11.30;;;2.55;;
23155;SDS011;11746;50.876;4.246;2023-03-14T03:19:34;12.65;;;3.30;;
23155;SDS011;11746;50.876;4.246;2023-03-14T03:22:03;11.60;;;2.60;;
23155;SDS011;11746;50.876;4.246;2023-03-14T03:24:28;14.45;;;3.75;;
23155;SDS011;11746;50.876;4.246;2023-03-14T03:26:54;9.32;;;2.92;;
23155;SDS011;11746;50.876;4.246;2023-03-14T03:29:20;11.90;;;3.20;;
23155;SDS011;11746;50.876;4.246;2023-03-14T03:31:45;11.60;;;2.70;;
23155;SDS011;11746;50.876;4.246;2023-03-14T03:34:18;11.13;;;2.67;;
23155;SDS011;11746;50.876;4.246;2023-03-14T03:36:44;11.25;;;2.45;;
23155;SDS011;11746;50.876;4.246;2023-03-14T03:39:09;11.85;;;2.17;;
23155;SDS011;11746;50.876;4.246;2023-03-14T03:41:37;11.35;;;2.20;;
23155;SDS011;11746;50.876;4.246;2023-03-14T03:44:03;12.57;;;2.00;;
23155;SDS011;11746;50.876;4.246;2023-03-14T03:46:30;11.05;;;2.20;;
23155;SDS011;11746;50.876;4.246;2023-03-14T03:48:57;13.50;;;2.38;;
23155;SDS011;11746;50.876;4.246;2023-03-14T03:51:23;7.40;;;1.90;;
23155;SDS011;11746;50.876;4.246;2023-03-14T03:53:55;8.60;;;1.60;;
23155;SDS011;11746;50.876;4.246;2023-03-14T03:56:24;9.10;;;1.70;;
23155;SDS011;11746;50.876;4.246;2023-03-14T03:58:52;7.00;;;1.35;;
23155;SDS011;11746;50.876;4.246;2023-03-14T04:01:22;13.95;;;1.90;;
23155;SDS011;11746;50.876;4.246;2023-03-14T04:03:50;9.75;;;1.75;;
23155;SDS011;11746;50.876;4.246;2023-03-14T04:06:18;7.10;;;1.50;;
23155;SDS011;11746;50.876;4.246;2023-03-14T04:08:44;9.00;;;1.92;;
23155;SDS011;11746;50.876;4.246;2023-03-14T04:11:11;7.30;;;1.60;;
23155;SDS011;11746;50.876;4.246;2023-03-14T04:13:37;8.50;;;1.50;;
23155;SDS011;11746;50.876;4.246;2023-03-14T04:16:09;7.30;;;1.60;;
23155;SDS011;11746;50.876;4.246;2023-03-14T04:18:40;5.82;;;1.23;;
23155;SDS011;11746;50.876;4.246;2023-03-14T04:21:06;6.28;;;1.42;;
23155;SDS011;11746;50.876;4.246;2023-03-14T04:23:31;6.60;;;1.48;;
23155;SDS011;11746;50.876;4.246;2023-03-14T04:25:58;7.88;;;1.58;;
23155;SDS011;11746;50.876;4.246;2023-03-14T04:28:26;5.88;;;1.40;;
23155;SDS011;11746;50.876;4.246;2023-03-14T04:30:54;6.43;;;1.20;;
23155;SDS011;11746;50.876;4.246;2023-03-14T04:33:19;4.22;;;1.10;;
23155;SDS011;11746;50.876;4.246;2023-03-14T04:35:45;4.43;;;0.93;;
23155;SDS011;11746;50.876;4.246;2023-03-14T04:38:12;7.10;;;1.30;;
23155;SDS011;11746;50.876;4.246;2023-03-14T04:40:41;5.82;;;1.45;;
23155;SDS011;11746;50.876;4.246;2023-03-14T04:43:12;5.60;;;2.15;;
23155;SDS011;11746;50.876;4.246;2023-03-14T04:45:41;4.97;;;1.25;;
23155;SDS011;11746;50.876;4.246;2023-03-14T04:48:07;4.30;;;1.25;;
23155;SDS011;11746;50.876;4.246;2023-03-14T04:50:33;4.88;;;1.67;;
23155;SDS011;11746;50.876;4.246;2023-03-14T04:52:58;4.03;;;1.20;;
23155;SDS011;11746;50.876;4.246;2023-03-14T04:55:26;5.28;;;1.45;;
23155;SDS011;11746;50.876;4.246;2023-03-14T04:57:52;4.13;;;1.42;;
23155;SDS011;11746;50.876;4.246;2023-03-14T05:00:18;3.80;;;1.50;;
23155;SDS011;11746;50.876;4.246;2023-03-14T05:02:44;5.47;;;1.60;;
23155;SDS011;11746;50.876;4.246;2023-03-14T05:05:10;6.72;;;1.90;;
23155;SDS011;11746;50.876;4.246;2023-03-14T05:07:35;4.10;;;1.73;;
23155;SDS011;11746;50.876;4.246;2023-03-14T05:10:01;4.40;;;1.52;;
23155;SDS011;11746;50.876;4.246;2023-03-14T05:12:27;7.07;;;2.10;;
23155;SDS011;11746;50.876;4.246;2023-03-14T05:14:55;7.25;;;2.83;;
23155;SDS011;11746;50.876;4.246;2023-03-14T05:17:20;4.25;;;2.20;;
23155;SDS011;11746;50.876;4.246;2023-03-14T05:19:46;4.22;;;2.10;;
23155;SDS011;11746;50.876;4.246;2023-03-14T05:22:12;4.47;;;2.38;;
23155;SDS011;11746;50.876;4.246;2023-03-14T05:24:38;5.80;;;2.50;;
23155;SDS011;11746;50.876;4.246;2023-03-14T05:27:03;7.68;;;2.25;;
23155;SDS011;11746;50.876;4.246;2023-03-14T05:29:29;6.35;;;1.90;;
23155;SDS011;11746;50.876;4.246;2023-03-14T05:31:57;5.47;;;2.15;;
23155;SDS011;11746;50.876;4.246;2023-03-14T05:34:23;5.55;;;2.25;;
23155;SDS011;11746;50.876;4.246;2023-03-14T05:36:49;3.13;;;2.03;;
23155;SDS011;11746;50.876;4.246;2023-03-14T05:39:17;3.72;;;2.05;;
23155;SDS011;11746;50.876;4.246;2023-03-14T05:41:44;3.53;;;1.73;;
23155;SDS011;11746;50.876;4.246;2023-03-14T05:44:10;4.90;;;2.20;;
23155;SDS011;11746;50.876;4.246;2023-03-14T05:46:36;3.53;;;2.35;;
23155;SDS011;11746;50.876;4.246;2023-03-14T05:49:01;3.15;;;1.80;;
23155;SDS011;11746;50.876;4.246;2023-03-14T05:51:29;3.45;;;2.40;;
23155;SDS011;11746;50.876;4.246;2023-03-14T05:53:55;3.22;;;2.20;;
23155;SDS011;11746;50.876;4.246;2023-03-14T05:56:22;5.00;;;2.67;;
23155;SDS011;11746;50.876;4.246;2023-03-14T05:58:48;4.90;;;2.40;;
23155;SDS011;11746;50.876;4.246;2023-03-14T06:01:14;3.17;;;2.30;;
23155;SDS011;11746;50.876;4.246;2023-03-14T06:03:39;5.97;;;2.47;;
23155;SDS011;11746;50.876;4.246;2023-03-14T06:06:05;5.30;;;2.58;;
23155;SDS011;11746;50.876;4.246;2023-03-14T06:08:31;5.18;;;2.40;;
23155;SDS011;11746;50.876;4.246;2023-03-14T06:10:57;4.57;;;2.72;;
23155;SDS011;11746;50.876;4.246;2023-03-14T06:13:27;7.00;;;3.15;;
23155;SDS011;11746;50.876;4.246;2023-03-14T06:15:53;6.93;;;3.20;;
23155;SDS011;11746;50.876;4.246;2023-03-14T06:18:21;5.85;;;3.00;;
23155;SDS011;11746;50.876;4.246;2023-03-14T06:20:46;5.28;;;3.08;;
23155;SDS011;11746;50.876;4.246;2023-03-14T06:23:12;7.65;;;3.10;;
23155;SDS011;11746;50.876;4.246;2023-03-14T06:25:38;4.55;;;2.40;;
23155;SDS011;11746;50.876;4.246;2023-03-14T06:28:03;6.65;;;2.97;;
23155;SDS011;11746;50.876;4.246;2023-03-14T06:30:29;4.65;;;2.47;;
23155;SDS011;11746;50.876;4.246;2023-03-14T06:32:55;5.25;;;2.60;;
23155;SDS011;11746;50.876;4.246;2023-03-14T06:35:21;4.57;;;2.65;;
23155;SDS011;11746;50.876;4.246;2023-03-14T06:37:49;5.28;;;2.40;;
23155;SDS011;11746;50.876;4.246;2023-03-14T06:40:14;4.32;;;2.03;;
23155;SDS011;11746;50.876;4.246;2023-03-14T06:42:45;3.83;;;1.70;;
23155;SDS011;11746;50.876;4.246;2023-03-14T06:45:11;3.60;;;2.25;;
23155;SDS011;11746;50.876;4.246;2023-03-14T06:47:37;6.13;;;2.47;;
23155;SDS011;11746;50.876;4.246;2023-03-14T06:50:04;5.32;;;2.60;;
23155;SDS011;11746;50.876;4.246;2023-03-14T06:52:31;3.05;;;2.13;;
23155;SDS011;11746;50.876;4.246;2023-03-14T06:54:56;3.90;;;2.03;;
23155;SDS011;11746;50.876;4.246;2023-03-14T06:57:24;3.17;;;2.08;;
23155;SDS011;11746;50.876;4.246;2023-03-14T06:59:50;4.28;;;1.98;;
23155;SDS011;11746;50.876;4.246;2023-03-14T07:02:16;4.10;;;1.50;;
23155;SDS011;11746;50.876;4.246;2023-03-14T07:04:42;2.63;;;1.33;;
23155;SDS011;11746;50.876;4.246;2023-03-14T07:07:07;5.97;;;2.00;;
23155;SDS011;11746;50.876;4.246;2023-03-14T07:09:33;3.67;;;1.85;;
23155;SDS011;11746;50.876;4.246;2023-03-14T07:12:00;7.18;;;2.15;;
23155;SDS011;11746;50.876;4.246;2023-03-14T07:14:25;4.38;;;1.65;;
23155;SDS011;11746;50.876;4.246;2023-03-14T07:16:54;2.97;;;1.77;;
23155;SDS011;11746;50.876;4.246;2023-03-14T07:19:24;4.78;;;1.70;;
23155;SDS011;11746;50.876;4.246;2023-03-14T07:21:53;5.88;;;2.10;;
23155;SDS011;11746;50.876;4.246;2023-03-14T07:24:18;7.20;;;2.50;;
23155;SDS011;11746;50.876;4.246;2023-03-14T07:26:46;3.50;;;2.03;;
23155;SDS011;11746;50.876;4.246;2023-03-14T07:29:12;4.50;;;2.10;;
23155;SDS011;11746;50.876;4.246;2023-03-14T07:31:37;4.68;;;1.95;;
23155;SDS011;11746;50.876;4.246;2023-03-14T07:34:05;3.88;;;1.75;;
23155;SDS011;11746;50.876;4.246;2023-03-14T07:36:31;7.45;;;2.80;;
23155;SDS011;11746;50.876;4.246;2023-03-14T07:38:59;5.55;;;2.03;;
23155;SDS011;11746;50.876;4.246;2023-03-14T07:41:24;6.90;;;2.20;;
23155;SDS011;11746;50.876;4.246;2023-03-14T07:43:50;6.00;;;2.67;;
23155;SDS011;11746;50.876;4.246;2023-03-14T07:46:15;7.00;;;2.40;;
23155;SDS011;11746;50.876;4.246;2023-03-14T07:48:42;5.20;;;2.67;;
23155;SDS011;11746;50.876;4.246;2023-03-14T07:51:08;6.82;;;2.90;;
23155;SDS011;11746;50.876;4.246;2023-03-14T07:53:34;7.35;;;3.25;;
23155;SDS011;11746;50.876;4.246;2023-03-14T07:55:59;7.10;;;3.45;;
23155;SDS011;11746;50.876;4.246;2023-03-14T07:58:27;7.88;;;3.55;;
23155;SDS011;11746;50.876;4.246;2023-03-14T08:00:53;9.10;;;3.40;;
23155;SDS011;11746;50.876;4.246;2023-03-14T08:03:18;8.25;;;3.78;;
23155;SDS011;11746;50.876;4.246;2023-03-14T08:05:46;6.93;;;3.60;;
23155;SDS011;11746;50.876;4.246;2023-03-14T08:08:14;7.82;;;3.58;;
23155;SDS011;11746;50.876;4.246;2023-03-14T08:10:39;10.70;;;4.57;;
23155;SDS011;11746;50.876;4.246;2023-03-14T08:13:05;7.47;;;3.50;;
23155;SDS011;11746;50.876;4.246;2023-03-14T08:15:31;7.82;;;3.83;;
23155;SDS011;11746;50.876;4.246;2023-03-14T08:17:57;5.15;;;3.03;;
23155;SDS011;11746;50.876;4.246;2023-03-14T08:20:24;6.57;;;3.00;;
23155;SDS011;11746;50.876;4.246;2023-03-14T08:22:51;4.38;;;2.45;;
23155;SDS011;11746;50.876;4.246;2023-03-14T08:25:17;4.38;;;2.00;;
23155;SDS011;11746;50.876;4.246;2023-03-14T08:27:43;4.32;;;1.98;;
23155;SDS011;11746;50.876;4.246;2023-03-14T08:30:10;4.70;;;2.00;;
23155;SDS011;11746;50.876;4.246;2023-03-14T08:32:37;3.97;;;2.00;;
23155;SDS011;11746;50.876;4.246;2023-03-14T08:35:03;4.00;;;2.25;;
23155;SDS011;11746;50.876;4.246;2023-03-14T08:37:32;5.30;;;1.77;;
23155;SDS011;11746;50.876;4.246;2023-03-14T08:40:01;6.10;;;2.55;;
23155;SDS011;11746;50.876;4.246;2023-03-14T08:42:31;4.80;;;1.98;;
23155;SDS011;11746;50.876;4.246;2023-03-14T08:45:01;3.90;;;2.13;;
23155;SDS011;11746;50.876;4.246;2023-03-14T08:47:26;5.68;;;2.17;;
23155;SDS011;11746;50.876;4.246;2023-03-14T08:49:54;5.13;;;2.17;;
23155;SDS011;11746;50.876;4.246;2023-03-14T08:52:20;4.55;;;2.10;;
23155;SDS011;11746;50.876;4.246;2023-03-14T08:54:46;4.60;;;2.10;;
23155;SDS011;11746;50.876;4.246;2023-03-14T08:57:12;6.43;;;2.15;;
23155;SDS011;11746;50.876;4.246;2023-03-14T08:59:37;4.43;;;2.13;;
23155;SDS011;11746;50.876;4.246;2023-03-14T09:02:03;5.85;;;2.22;;
23155;SDS011;11746;50.876;4.246;2023-03-14T09:04:32;5.18;;;2.22;;
23155;SDS011;11746;50.876;4.246;2023-03-14T09:06:58;6.55;;;2.10;;
23155;SDS011;11746;50.876;4.246;2023-03-14T09:09:24;5.60;;;2.63;;
23155;SDS011;11746;50.876;4.246;2023-03-14T09:11:53;7.68;;;2.17;;
23155;SDS011;11746;50.876;4.246;2023-03-14T09:14:19;8.93;;;2.25;;
23155;SDS011;11746;50.876;4.246;2023-03-14T09:16:47;7.90;;;2.30;;
23155;SDS011;11746;50.876;4.246;2023-03-14T09:19:12;6.68;;;2.45;;
23155;SDS011;11746;50.876;4.246;2023-03-14T09:21:38;8.60;;;2.50;;
23155;SDS011;11746;50.876;4.246;2023-03-14T09:24:04;10.98;;;2.67;;
23155;SDS011;11746;50.876;4.246;2023-03-14T09:26:30;6.88;;;2.30;;
23155;SDS011;11746;50.876;4.246;2023-03-14T09:28:56;9.82;;;2.33;;
23155;SDS011;11746;50.876;4.246;2023-03-14T09:31:22;9.13;;;2.25;;
23155;SDS011;11746;50.876;4.246;2023-03-14T09:33:47;10.93;;;2.33;;
23155;SDS011;11746;50.876;4.246;2023-03-14T09:36:15;9.43;;;2.90;;
23155;SDS011;11746;50.876;4.246;2023-03-14T09:38:41;8.63;;;2.15;;
23155;SDS011;11746;50.876;4.246;2023-03-14T09:41:14;8.52;;;2.88;;
23155;SDS011;11746;50.876;4.246;2023-03-14T09:43:44;6.15;;;1.98;;
23155;SDS011;11746;50.876;4.246;2023-03-14T09:46:11;9.27;;;2.40;;
23155;SDS011;11746;50.876;4.246;2023-03-14T09:48:40;4.75;;;1.75;;
23155;SDS011;11746;50.876;4.246;2023-03-14T09:51:10;6.43;;;1.65;;
23155;SDS011;11746;50.876;4.246;2023-03-14T09:53:46;6.78;;;1.73;;
23155;SDS011;11746;50.876;4.246;2023-03-14T09:56:14;9.40;;;1.88;;
23155;SDS011;11746;50.876;4.246;2023-03-14T09:58:44;10.13;;;2.78;;
23155;SDS011;11746;50.876;4.246;2023-03-14T10:01:15;9.45;;;2.00;;
23155;SDS011;11746;50.876;4.246;2023-03-14T10:03:50;5.97;;;1.85;;
23155;SDS011;11746;50.876;4.246;2023-03-14T10:06:29;10.77;;;1.95;;
23155;SDS011;11746;50.876;4.246;2023-03-14T10:08:56;9.55;;;2.63;;
23155;SDS011;11746;50.876;4.246;2023-03-14T10:11:22;6.53;;;1.90;;
23155;SDS011;11746;50.876;4.246;2023-03-14T10:16:30;8.23;;;2.03;;
23155;SDS011;11746;50.876;4.246;2023-03-14T10:19:03;6.30;;;1.60;;
23155;SDS011;11746;50.876;4.246;2023-03-14T10:21:31;6.75;;;1.75;;
23155;SDS011;11746;50.876;4.246;2023-03-14T10:24:19;10.20;;;2.00;;
23155;SDS011;11746;50.876;4.246;2023-03-14T10:26:55;5.70;;;1.38;;
23155;SDS011;11746;50.876;4.246;2023-03-14T10:29:27;7.18;;;2.28;;
23155;SDS011;11746;50.876;4.246;2023-03-14T10:31:57;7.95;;;2.28;;
23155;SDS011;11746;50.876;4.246;2023-03-14T10:34:33;8.00;;;1.45;;
23155;SDS011;11746;50.876;4.246;2023-03-14T10:39:53;8.13;;;2.72;;
23155;SDS011;11746;50.876;4.246;2023-03-14T10:42:30;9.35;;;1.90;;
23155;SDS011;11746;50.876;4.246;2023-03-14T10:45:47;3.92;;;1.15;;
23155;SDS011;11746;50.876;4.246;2023-03-14T10:47:57;3.80;;;1.13;;
23155;SDS011;11746;50.876;4.246;2023-03-14T10:50:30;7.78;;;1.52;;
23155;SDS011;11746;50.876;4.246;2023-03-14T10:53:01;8.70;;;1.55;;
23155;SDS011;11746;50.876;4.246;2023-03-14T10:55:40;5.45;;;1.52;;
23155;SDS011;11746;50.876;4.246;2023-03-14T10:58:44;7.50;;;1.42;;
23155;SDS011;11746;50.876;4.246;2023-03-14T11:09:32;3.22;;;0.75;;
23155;SDS011;11746;50.876;4.246;2023-03-14T11:15:04;3.03;;;0.70;;
23155;SDS011;11746;50.876;4.246;2023-03-14T11:23:27;4.30;;;0.80;;
23155;SDS011;11746;50.876;4.246;2023-03-14T11:28:54;2.53;;;0.77;;
23155;SDS011;11746;50.876;4.246;2023-03-14T11:31:27;1.55;;;0.60;;
23155;SDS011;11746;50.876;4.246;2023-03-14T11:39:13;3.10;;;0.50;;
23155;SDS011;11746;50.876;4.246;2023-03-14T11:42:15;3.67;;;0.50;;
23155;SDS011;11746;50.876;4.246;2023-03-14T11:44:38;1.63;;;0.47;;
23155;SDS011;11746;50.876;4.246;2023-03-14T11:47:15;2.00;;;0.50;;
23155;SDS011;11746;50.876;4.246;2023-03-14T11:55:02;4.13;;;0.70;;
23155;SDS011;11746;50.876;4.246;2023-03-14T11:57:35;2.65;;;0.77;;
23155;SDS011;11746;50.876;4.246;2023-03-14T12:02:48;2.03;;;0.55;;
23155;SDS011;11746;50.876;4.246;2023-03-14T12:13:18;2.40;;;0.70;;
23155;SDS011;11746;50.876;4.246;2023-03-14T12:15:48;2.25;;;0.73;;
23155;SDS011;11746;50.876;4.246;2023-03-14T12:20:54;2.42;;;0.70;;
23155;SDS011;11746;50.876;4.246;2023-03-14T12:23:26;3.72;;;1.20;;
23155;SDS011;11746;50.876;4.246;2023-03-14T12:28:37;2.17;;;1.10;;
23155;SDS011;11746;50.876;4.246;2023-03-14T12:42:00;2.42;;;1.10;;
23155;SDS011;11746;50.876;4.246;2023-03-14T12:46:57;3.33;;;1.30;;
23155;SDS011;11746;50.876;4.246;2023-03-14T12:49:28;4.53;;;1.48;;
23155;SDS011;11746;50.876;4.246;2023-03-14T12:59:52;5.30;;;2.05;;
23155;SDS011;11746;50.876;4.246;2023-03-14T13:04:54;5.78;;;2.03;;
23155;SDS011;11746;50.876;4.246;2023-03-14T13:08:01;4.68;;;1.60;;
23155;SDS011;11746;50.876;4.246;2023-03-14T13:10:28;4.40;;;1.50;;
23155;SDS011;11746;50.876;4.246;2023-03-14T13:12:56;5.05;;;1.65;;
23155;SDS011;11746;50.876;4.246;2023-03-14T13:15:41;5.63;;;1.70;;
23155;SDS011;11746;50.876;4.246;2023-03-14T13:18:18;9.90;;;2.30;;
23155;SDS011;11746;50.876;4.246;2023-03-14T13:20:55;7.90;;;1.90;;
23155;SDS011;11746;50.876;4.246;2023-03-14T13:23:27;6.10;;;1.58;;
23155;SDS011;11746;50.876;4.246;2023-03-14T13:25:55;9.95;;;2.53;;
23155;SDS011;11746;50.876;4.246;2023-03-14T13:28:22;8.02;;;1.98;;
23155;SDS011;11746;50.876;4.246;2023-03-14T13:30:54;19.45;;;7.90;;
23155;SDS011;11746;50.876;4.246;2023-03-14T13:33:23;8.82;;;3.03;;
23155;SDS011;11746;50.876;4.246;2023-03-14T13:35:53;9.82;;;3.70;;
23155;SDS011;11746;50.876;4.246;2023-03-14T13:38:25;12.40;;;4.10;;
23155;SDS011;11746;50.876;4.246;2023-03-14T13:40:55;17.23;;;2.45;;
23155;SDS011;11746;50.876;4.246;2023-03-14T13:43:33;13.65;;;2.58;;
23155;SDS011;11746;50.876;4.246;2023-03-14T13:46:13;14.57;;;2.92;;
23155;SDS011;11746;50.876;4.246;2023-03-14T13:48:44;13.82;;;2.25;;
23155;SDS011;11746;50.876;4.246;2023-03-14T13:51:22;15.20;;;3.45;;
23155;SDS011;11746;50.876;4.246;2023-03-14T13:53:54;15.55;;;2.78;;
23155;SDS011;11746;50.876;4.246;2023-03-14T13:56:21;14.05;;;2.72;;
23155;SDS011;11746;50.876;4.246;2023-03-14T13:58:48;12.55;;;2.97;;
23155;SDS011;11746;50.876;4.246;2023-03-14T14:01:25;15.38;;;3.28;;
23155;SDS011;11746;50.876;4.246;2023-03-14T14:03:56;12.10;;;2.38;;
23155;SDS011;11746;50.876;4.246;2023-03-14T14:06:34;14.25;;;1.98;;
23155;SDS011;11746;50.876;4.246;2023-03-14T14:09:04;18.67;;;2.75;;
23155;SDS011;11746;50.876;4.246;2023-03-14T14:11:51;11.90;;;2.05;;
23155;SDS011;11746;50.876;4.246;2023-03-14T14:17:05;12.55;;;3.28;;
23155;SDS011;11746;50.876;4.246;2023-03-14T14:19:37;16.63;;;1.85;;
23155;SDS011;11746;50.876;4.246;2023-03-14T14:22:06;11.80;;;2.80;;
23155;SDS011;11746;50.876;4.246;2023-03-14T14:24:34;10.25;;;1.65;;
23155;SDS011;11746;50.876;4.246;2023-03-14T14:27:08;13.25;;;1.80;;
23155;SDS011;11746;50.876;4.246;2023-03-14T14:29:37;10.50;;;1.85;;
23155;SDS011;11746;50.876;4.246;2023-03-14T14:32:12;10.13;;;1.20;;
23155;SDS011;11746;50.876;4.246;2023-03-14T14:37:22;7.45;;;1.92;;
23155;SDS011;11746;50.876;4.246;2023-03-14T14:39:52;7.25;;;1.63;;
23155;SDS011;11746;50.876;4.246;2023-03-14T14:42:20;5.53;;;0.90;;
23155;SDS011;11746;50.876;4.246;2023-03-14T14:44:52;9.80;;;1.45;;
23155;SDS011;11746;50.876;4.246;2023-03-14T14:47:20;3.35;;;1.20;;
23155;SDS011;11746;50.876;4.246;2023-03-14T14:49:55;7.13;;;1.27;;
23155;SDS011;11746;50.876;4.246;2023-03-14T14:52:42;2.85;;;0.55;;
23155;SDS011;11746;50.876;4.246;2023-03-14T14:55:18;2.92;;;0.47;;
23155;SDS011;11746;50.876;4.246;2023-03-14T14:57:49;6.25;;;0.90;;
23155;SDS011;11746;50.876;4.246;2023-03-14T15:00:21;3.92;;;0.65;;
23155;SDS011;11746;50.876;4.246;2023-03-14T15:02:50;8.02;;;1.40;;
23155;SDS011;11746;50.876;4.246;2023-03-14T15:05:21;5.35;;;1.30;;
23155;SDS011;11746;50.876;4.246;2023-03-14T15:07:48;4.75;;;1.40;;
23155;SDS011;11746;50.876;4.246;2023-03-14T15:10:21;2.70;;;1.10;;
23155;SDS011;11746;50.876;4.246;2023-03-14T15:12:55;4.82;;;1.40;;
23155;SDS011;11746;50.876;4.246;2023-03-14T15:15:20;2.72;;;0.82;;
23155;SDS011;11746;50.876;4.246;2023-03-14T15:17:46;2.92;;;0.98;;
23155;SDS011;11746;50.876;4.246;2023-03-14T15:20:13;6.45;;;1.70;;
23155;SDS011;11746;50.876;4.246;2023-03-14T15:22:40;2.40;;;0.73;;
23155;SDS011;11746;50.876;4.246;2023-03-14T15:25:06;4.82;;;1.80;;
23155;SDS011;11746;50.876;4.246;2023-03-14T15:27:33;1.35;;;0.60;;
23155;SDS011;11746;50.876;4.246;2023-03-14T15:29:59;3.35;;;0.70;;
23155;SDS011;11746;50.876;4.246;2023-03-14T15:32:25;3.53;;;1.10;;
23155;SDS011;11746;50.876;4.246;2023-03-14T15:34:54;3.80;;;0.80;;
23155;SDS011;11746;50.876;4.246;2023-03-14T15:37:20;1.70;;;0.60;;
23155;SDS011;11746;50.876;4.246;2023-03-14T15:39:46;3.47;;;0.50;;
23155;SDS011;11746;50.876;4.246;2023-03-14T15:42:12;2.28;;;0.40;;
23155;SDS011;11746;50.876;4.246;2023-03-14T15:44:37;2.65;;;0.63;;
23155;SDS011;11746;50.876;4.246;2023-03-14T15:47:06;1.73;;;0.60;;
23155;SDS011;11746;50.876;4.246;2023-03-14T15:49:33;2.88;;;0.88;;
23155;SDS011;11746;50.876;4.246;2023-03-14T15:51:59;3.22;;;0.60;;
23155;SDS011;11746;50.876;4.246;2023-03-14T15:54:25;4.88;;;1.02;;
23155;SDS011;11746;50.876;4.246;2023-03-14T15:56:57;2.72;;;0.90;;
23155;SDS011;11746;50.876;4.246;2023-03-14T15:59:25;2.97;;;0.70;;
23155;SDS011;11746;50.876;4.246;2023-03-14T16:01:51;3.33;;;0.85;;
23155;SDS011;11746;50.876;4.246;2023-03-14T16:04:16;4.50;;;1.30;;
23155;SDS011;11746;50.876;4.246;2023-03-14T16:06:45;4.35;;;1.10;;
23155;SDS011;11746;50.876;4.246;2023-03-14T16:09:11;3.20;;;1.40;;
23155;SDS011;11746;50.876;4.246;2023-03-14T16:11:42;3.45;;;1.75;;
23155;SDS011;11746;50.876;4.246;2023-03-14T16:14:11;2.88;;;1.40;;
23155;SDS011;11746;50.876;4.246;2023-03-14T16:16:39;5.00;;;1.50;;
23155;SDS011;11746;50.876;4.246;2023-03-14T16:19:06;5.85;;;1.80;;
23155;SDS011;11746;50.876;4.246;2023-03-14T16:21:37;6.00;;;2.03;;
23155;SDS011;11746;50.876;4.246;2023-03-14T16:24:07;5.00;;;1.83;;
23155;SDS011;11746;50.876;4.246;2023-03-14T16:26:40;5.40;;;2.08;;
23155;SDS011;11746;50.876;4.246;2023-03-14T16:29:09;7.78;;;1.50;;
23155;SDS011;11746;50.876;4.246;2023-03-14T16:31:34;5.95;;;2.38;;
23155;SDS011;11746;50.876;4.246;2023-03-14T16:34:07;5.70;;;2.75;;